Time;durP1;ratioP1;P1;durP2;ratioP2;P2;SDS_P1;SDS_P2;PMS_P1;PMS_P2;Temp;Humidity;BMP_temperature;BMP_pressure;BME280_temperature;BME280_humidity;BME280_pressure;Samples;Min_cycle;Max_cycle;Signal;HPM_P1;HPM_P2
2022/11/09 00:00:52;;;;;;;4.03;1.70;;;12.10;99.90;;;;;;4963740;28;20078;-78
2022/11/09 00:03:18;;;;;;;2.40;1.90;;;12.30;99.90;;;;;;4949691;28;20046;-78
2022/11/09 00:05:52;;;;;;;4.15;2.30;;;12.10;99.90;;;;;;4950590;29;20043;-76
2022/11/09 00:08:21;;;;;;;;;;;12.10;99.90;;;;;;4974192;28;20031;-76
2022/11/09 00:10:46;;;;;;;5.03;2.20;;;12.10;99.90;;;;;;4963366;29;19922;-77
2022/11/09 00:13:12;;;;;;;4.70;2.22;;;12.30;99.90;;;;;;4967080;28;20084;-76
2022/11/09 00:15:38;;;;;;;6.22;2.63;;;12.20;99.90;;;;;;4983910;28;20145;-78
2022/11/09 00:18:03;;;;;;;4.25;2.30;;;12.40;99.90;;;;;;4965400;28;20053;-78
2022/11/09 00:20:29;;;;;;;5.00;2.33;;;12.30;99.90;;;;;;4934549;29;20199;-78
2022/11/09 00:22:55;;;;;;;4.25;2.88;;;12.70;99.90;;;;;;4947136;28;20042;-77
2022/11/09 00:25:20;;;;;;;5.82;2.70;;;12.40;99.90;;;;;;4949960;28;20030;-77
2022/11/09 00:27:46;;;;;;;5.90;3.15;;;12.30;99.90;;;;;;4949646;29;20114;-77
2022/11/09 00:30:12;;;;;;;4.78;2.85;;;12.40;99.90;;;;;;4946779;29;20031;-77
2022/11/09 00:32:37;;;;;;;2.95;1.90;;;12.40;99.90;;;;;;4934284;28;20112;-77
2022/11/09 00:35:03;;;;;;;7.90;2.72;;;12.40;99.90;;;;;;4968526;28;20047;-77
2022/11/09 00:37:30;;;;;;;7.68;2.20;;;12.40;99.90;;;;;;4978068;28;20113;-77
2022/11/09 00:39:57;;;;;;;6.45;2.45;;;12.30;99.90;;;;;;4959432;28;20027;-78
2022/11/09 00:42:22;;;;;;;3.95;2.35;;;12.40;99.90;;;;;;4966792;28;20047;-77
2022/11/09 00:44:48;;;;;;;4.10;2.10;;;12.40;99.90;;;;;;4971261;28;20065;-78
2022/11/09 00:47:14;;;;;;;5.57;2.17;;;12.30;99.90;;;;;;4964614;28;20125;-77
2022/11/09 00:49:40;;;;;;;5.05;1.88;;;12.30;99.90;;;;;;4960004;29;20039;-77
2022/11/09 00:52:05;;;;;;;2.83;1.70;;;12.20;99.90;;;;;;4941750;29;20062;-77
2022/11/09 00:54:31;;;;;;;3.15;2.03;;;12.20;99.90;;;;;;4979241;28;20051;-78
2022/11/09 00:57:23;;;;;;;4.53;2.30;;;12.20;99.90;;;;;;4942434;29;20039;-78
2022/11/09 00:59:50;;;;;;;4.88;2.13;;;12.30;99.90;;;;;;4942285;29;20054;-77
2022/11/09 01:02:16;;;;;;;3.28;1.90;;;12.30;99.90;;;;;;4947725;28;20094;-78
2022/11/09 01:04:42;;;;;;;4.82;2.20;;;12.20;99.90;;;;;;4926585;29;20042;-77
2022/11/09 01:07:07;;;;;;;3.92;2.03;;;12.30;99.90;;;;;;4962965;29;20102;-77
2022/11/09 01:09:33;;;;;;;2.53;1.73;;;12.10;99.90;;;;;;4962955;29;20043;-78
2022/11/09 01:11:59;;;;;;;2.67;2.20;;;12.10;99.90;;;;;;4939268;29;20087;-77
2022/11/09 01:18:31;;;;;;;4.65;2.28;;;11.90;99.90;;;;;;4941587;29;20338;-78
2022/11/09 01:20:57;;;;;;;5.82;2.60;;;12.10;99.90;;;;;;4900305;29;20608;-78
2022/11/09 01:23:23;;;;;;;5.35;2.40;;;12.00;99.90;;;;;;4918658;28;20107;-79
2022/11/09 01:25:55;;;;;;;5.80;2.78;;;12.10;99.90;;;;;;4918473;29;20047;-79
2022/11/09 01:28:21;;;;;;;6.18;2.58;;;12.00;99.90;;;;;;4943764;29;20109;-79
2022/11/09 01:30:49;;;;;;;5.63;2.40;;;12.10;99.90;;;;;;4924008;29;20058;-78
2022/11/09 01:33:15;;;;;;;5.20;2.40;;;12.20;99.90;;;;;;4946208;29;20031;-77
2022/11/09 01:35:40;;;;;;;5.88;2.40;;;12.30;99.90;;;;;;4939288;29;20254;-78
2022/11/09 01:38:07;;;;;;;4.93;2.50;;;12.10;99.90;;;;;;4963227;29;20039;-77
2022/11/09 01:40:35;;;;;;;5.32;2.20;;;12.10;99.90;;;;;;4946320;29;20031;-77
2022/11/09 01:43:22;;;;;;;8.25;2.55;;;12.30;99.90;;;;;;4938758;29;20250;-76
2022/11/09 01:46:02;;;;;;;6.55;2.75;;;12.10;99.90;;;;;;4942785;29;20043;-77
2022/11/09 01:48:38;;;;;;;7.47;2.85;;;12.30;99.90;;;;;;4942736;29;20111;-76
2022/11/09 01:51:32;;;;;;;5.93;2.58;;;12.10;99.90;;;;;;4939844;28;20217;-76
2022/11/09 01:54:16;;;;;;;7.40;3.15;;;12.30;99.90;;;;;;4981288;28;20058;-77
2022/11/09 01:56:44;;;;;;;5.13;2.43;;;12.40;99.90;;;;;;4948057;28;20069;-77
2022/11/09 01:59:19;;;;;;;5.78;2.03;;;12.40;99.90;;;;;;4975406;28;20069;-77
2022/11/09 02:01:45;;;;;;;4.90;2.33;;;12.30;99.90;;;;;;4945996;28;20074;-76
2022/11/09 02:04:39;;;;;;;6.90;2.78;;;12.60;99.90;;;;;;4946555;28;20031;-77
2022/11/09 02:07:05;;;;;;;6.55;2.83;;;12.40;99.90;;;;;;4988381;28;20035;-77
2022/11/09 02:10:12;;;;;;;6.32;2.35;;;12.50;99.90;;;;;;4962958;28;20045;-78
2022/11/09 02:12:38;;;;;;;6.32;3.00;;;12.40;99.90;;;;;;4954451;28;20743;-79
2022/11/09 02:15:07;;;;;;;7.25;2.63;;;12.50;99.90;;;;;;4969597;28;20069;-79
2022/11/09 02:17:34;;;;;;;8.75;2.97;;;12.50;99.90;;;;;;4951434;28;20040;-78
2022/11/09 02:20:00;;;;;;;6.47;2.72;;;12.40;99.90;;;;;;4941034;28;20537;-78
2022/11/09 02:22:26;;;;;;;6.22;2.60;;;12.30;99.90;;;;;;4977231;28;20077;-78
2022/11/09 02:24:52;;;;;;;8.77;2.65;;;12.50;99.90;;;;;;4968911;28;20066;-78
2022/11/09 02:27:19;;;;;;;7.50;2.50;;;12.30;99.90;;;;;;4951245;28;20111;-78
2022/11/09 02:29:47;;;;;;;3.55;2.75;;;12.30;99.90;;;;;;4952541;28;20309;-78
2022/11/09 02:32:22;;;;;;;6.07;2.33;;;12.30;99.90;;;;;;4963920;28;20061;-77
2022/11/09 02:34:51;;;;;;;7.10;2.28;;;12.20;99.90;;;;;;4945386;28;20092;-77
2022/11/09 02:37:24;;;;;;;7.03;2.72;;;12.30;99.90;;;;;;4955983;28;20106;-76
2022/11/09 02:39:50;;;;;;;3.88;2.25;;;12.20;99.90;;;;;;4974377;28;20030;-78
2022/11/09 02:42:16;;;;;;;6.80;2.22;;;12.30;99.90;;;;;;4940988;28;20050;-77
2022/11/09 02:44:49;;;;;;;4.45;2.17;;;12.30;99.90;;;;;;4961964;29;20050;-77
2022/11/09 02:47:15;;;;;;;6.22;2.58;;;12.10;99.90;;;;;;4972215;28;20031;-77
2022/11/09 02:49:41;;;;;;;8.55;2.47;;;12.10;99.90;;;;;;4947434;28;20346;-78
2022/11/09 02:52:07;;;;;;;9.25;2.72;;;12.10;99.90;;;;;;4948808;29;20280;-77
2022/11/09 02:54:33;;;;;;;6.65;2.55;;;12.20;99.90;;;;;;4962118;28;20111;-77
2022/11/09 02:56:58;;;;;;;6.85;2.53;;;12.10;99.90;;;;;;4945658;29;20043;-77
2022/11/09 02:59:24;;;;;;;5.82;2.67;;;12.20;99.90;;;;;;4919840;29;20028;-76
2022/11/09 03:01:50;;;;;;;6.95;2.22;;;12.10;99.90;;;;;;4943247;29;20074;-76
2022/11/09 03:04:15;;;;;;;8.70;2.60;;;12.00;99.90;;;;;;4947768;29;20065;-77
2022/11/09 03:06:41;;;;;;;8.32;2.90;;;12.00;99.90;;;;;;4937310;29;20050;-76
2022/11/09 03:09:08;;;;;;;9.48;2.50;;;12.00;99.90;;;;;;4976396;28;20034;-76
2022/11/09 03:11:35;;;;;;;4.65;2.60;;;11.90;99.90;;;;;;4944698;29;20043;-76
2022/11/09 03:14:01;;;;;;;8.25;2.45;;;11.70;99.90;;;;;;4940140;29;20035;-76
2022/11/09 03:16:27;;;;;;;10.40;2.95;;;12.00;99.90;;;;;;4961351;29;20050;-76
2022/11/09 03:18:53;;;;;;;11.52;2.58;;;12.00;99.90;;;;;;4951081;29;20047;-77
2022/11/09 03:21:20;;;;;;;5.07;2.55;;;11.90;99.90;;;;;;4929766;28;20039;-77
2022/11/09 03:23:47;;;;;;;9.68;2.60;;;11.90;99.90;;;;;;4944848;28;20086;-77
2022/11/09 03:26:13;;;;;;;9.20;2.40;;;12.00;99.90;;;;;;4979474;28;20039;-77
2022/11/09 03:28:40;;;;;;;9.90;2.30;;;12.00;99.90;;;;;;4970649;28;20110;-78
2022/11/09 03:31:08;;;;;;;9.32;2.83;;;12.00;99.90;;;;;;4963682;28;20094;-77
2022/11/09 03:33:35;;;;;;;7.15;2.45;;;12.00;99.90;;;;;;4930324;29;20039;-76
2022/11/09 03:36:00;;;;;;;8.82;2.42;;;11.90;99.90;;;;;;4939722;29;20038;-77
2022/11/09 03:38:26;;;;;;;8.55;2.35;;;12.00;99.90;;;;;;4929233;29;20027;-77
2022/11/09 03:40:52;;;;;;;5.95;2.45;;;11.90;99.90;;;;;;4939747;29;20035;-77
2022/11/09 03:43:17;;;;;;;9.02;2.65;;;12.00;99.90;;;;;;4964874;28;20213;-78
2022/11/09 03:45:43;;;;;;;6.85;2.10;;;12.10;99.90;;;;;;4957652;29;20093;-78
2022/11/09 03:48:09;;;;;;;10.02;2.58;;;12.00;99.90;;;;;;4965229;29;20023;-77
2022/11/09 03:50:39;;;;;;;6.80;2.40;;;11.90;99.90;;;;;;4965380;29;20078;-76
2022/11/09 03:53:05;;;;;;;6.72;2.40;;;11.90;99.90;;;;;;4957179;29;20206;-78
2022/11/09 03:55:31;;;;;;;5.10;2.05;;;11.90;99.90;;;;;;4950161;29;20031;-78
2022/11/09 03:57:56;;;;;;;8.35;2.55;;;11.90;99.90;;;;;;4942084;29;20091;-78
2022/11/09 04:00:23;;;;;;;7.22;2.03;;;11.90;99.90;;;;;;4932034;29;20034;-77
2022/11/09 04:02:49;;;;;;;10.88;2.33;;;12.00;99.90;;;;;;4956818;29;20328;-77
2022/11/09 04:05:15;;;;;;;8.27;1.90;;;13.70;99.90;;;;;;4965210;29;20217;-77
2022/11/09 04:07:55;;;;;;;10.38;2.33;;;12.00;99.90;;;;;;4940351;29;20039;-77
2022/11/09 04:10:22;;;;;;;8.50;1.98;;;11.90;99.90;;;;;;4964726;28;20039;-76
2022/11/09 04:12:48;;;;;;;9.90;2.08;;;11.90;99.90;;;;;;4956314;29;20300;-77
2022/11/09 04:15:14;;;;;;;6.82;2.50;;;11.80;99.90;;;;;;4926194;28;20031;-77
2022/11/09 04:17:40;;;;;;;6.93;2.35;;;11.90;99.90;;;;;;4980791;28;20050;-77
2022/11/09 04:20:07;;;;;;;9.80;2.53;;;11.90;99.90;;;;;;4939679;29;20032;-78
2022/11/09 04:22:33;;;;;;;12.52;2.15;;;11.80;99.90;;;;;;4930372;29;20202;-77
2022/11/09 04:24:59;;;;;;;10.75;2.65;;;11.90;99.90;;;;;;4950339;29;20230;-77
2022/11/09 04:27:43;;;;;;;7.78;1.95;;;11.70;99.90;;;;;;4964073;29;20109;-78
2022/11/09 04:30:09;;;;;;;7.72;2.08;;;14.20;99.90;;;;;;4958362;29;20046;-78
2022/11/09 04:32:34;;;;;;;10.38;2.65;;;11.80;99.90;;;;;;4932260;29;20047;-78
2022/11/09 04:35:00;;;;;;;5.55;1.85;;;11.80;99.90;;;;;;4927467;29;20264;-78
2022/11/09 04:37:26;;;;;;;6.82;2.78;;;11.70;99.90;;;;;;4918775;29;20035;-78
2022/11/09 04:39:51;;;;;;;8.80;1.60;;;11.70;99.90;;;;;;4926139;29;20222;-79
2022/11/09 04:42:17;;;;;;;10.35;2.25;;;11.70;99.90;;;;;;4942825;29;20070;-78
2022/11/09 04:44:43;;;;;;;7.40;2.15;;;11.80;99.90;;;;;;4916977;29;20039;-78
2022/11/09 04:47:08;;;;;;;10.88;2.28;;;11.70;99.90;;;;;;4959907;29;20037;-78
2022/11/09 04:49:34;;;;;;;7.28;2.13;;;11.80;99.90;;;;;;4935739;28;20046;-78
2022/11/09 04:51:59;;;;;;;4.47;1.77;;;11.60;99.90;;;;;;4932755;29;20063;-78
2022/11/09 04:54:25;;;;;;;7.22;2.20;;;11.70;99.90;;;;;;4943306;28;20054;-78
2022/11/09 04:56:51;;;;;;;8.23;2.53;;;11.80;99.90;;;;;;4968611;28;20093;-77
2022/11/09 04:59:54;;;;;;;7.32;2.42;;;11.80;99.90;;;;;;4935784;28;20031;-77
2022/11/09 05:02:42;;;;;;;9.40;2.10;;;11.80;99.90;;;;;;4968604;28;20039;-78
2022/11/09 05:05:07;;;;;;;7.28;2.20;;;11.80;99.90;;;;;;4949993;28;20042;-78
2022/11/09 05:07:33;;;;;;;7.38;2.50;;;11.80;99.90;;;;;;4943933;28;20034;-75
2022/11/09 05:09:59;;;;;;;8.95;2.42;;;11.80;99.90;;;;;;4968752;28;20061;-77
2022/11/09 05:12:24;;;;;;;6.18;1.80;;;11.80;99.90;;;;;;4974025;28;20042;-77
2022/11/09 05:14:50;;;;;;;8.00;2.63;;;11.90;99.90;;;;;;4960575;28;20034;-76
2022/11/09 05:17:16;;;;;;;6.70;2.30;;;11.80;99.90;;;;;;4952848;28;20043;-76
2022/11/09 05:19:41;;;;;;;8.23;2.67;;;11.90;99.90;;;;;;4946465;28;20110;-77
2022/11/09 05:24:51;;;;;;;6.22;2.50;;;11.90;99.90;;;;;;4960118;28;20067;-77
2022/11/09 05:27:17;;;;;;;6.55;2.10;;;11.90;99.90;;;;;;4979630;28;20075;-76
2022/11/09 05:29:42;;;;;;;6.15;1.98;;;11.90;99.90;;;;;;4943551;28;20123;-76
2022/11/09 05:32:08;;;;;;;7.68;2.08;;;11.90;99.90;;;;;;4950207;28;20042;-75
2022/11/09 05:34:34;;;;;;;8.63;2.30;;;11.90;99.90;;;;;;4962835;28;20114;-77
2022/11/09 05:36:59;;;;;;;4.38;2.33;;;12.00;99.90;;;;;;4962593;28;20051;-78
2022/11/09 05:39:25;;;;;;;14.00;2.90;;;12.00;99.90;;;;;;4949336;28;20038;-77
2022/11/09 05:41:51;;;;;;;7.78;2.28;;;12.00;99.90;;;;;;4969094;28;20139;-78
2022/11/09 05:44:16;;;;;;;8.75;2.25;;;12.00;99.90;;;;;;4977747;28;20031;-78
2022/11/09 05:46:42;;;;;;;12.90;3.53;;;11.90;99.90;;;;;;4945475;28;20038;-77
2022/11/09 05:49:08;;;;;;;7.30;2.40;;;11.90;99.90;;;;;;4959181;28;20070;-78
2022/11/09 05:51:33;;;;;;;9.38;2.80;;;11.90;99.90;;;;;;4979641;28;20042;-77
2022/11/09 05:53:59;;;;;;;10.13;2.58;;;12.00;99.90;;;;;;4955295;28;20042;-77
2022/11/09 05:56:25;;;;;;;4.90;2.35;;;11.90;99.90;;;;;;4950991;28;20030;-77
2022/11/09 05:58:50;;;;;;;9.40;2.38;;;11.90;99.90;;;;;;4987694;28;20057;-77
2022/11/09 06:01:20;;;;;;;7.78;2.60;;;11.90;99.90;;;;;;4962245;28;20089;-78
2022/11/09 06:03:46;;;;;;;12.65;3.05;;;11.90;99.90;;;;;;4979887;28;20122;-77
2022/11/09 06:06:14;;;;;;;12.52;2.47;;;12.00;99.90;;;;;;4950860;28;20089;-75
2022/11/09 06:08:41;;;;;;;9.00;2.97;;;12.00;99.90;;;;;;4965048;28;20237;-77
2022/11/09 06:11:09;;;;;;;7.60;2.72;;;11.90;99.90;;;;;;4975530;28;20041;-77
2022/11/09 06:13:35;;;;;;;6.07;2.20;;;12.10;99.90;;;;;;4949202;28;20197;-76
2022/11/09 06:16:03;;;;;;;7.28;2.20;;;11.90;99.90;;;;;;4956881;29;20058;-77
2022/11/09 06:18:30;;;;;;;4.70;2.17;;;11.90;99.90;;;;;;4957697;28;20034;-77
2022/11/09 06:20:58;;;;;;;8.65;2.38;;;11.80;99.90;;;;;;4977791;28;20023;-78
2022/11/09 06:23:24;;;;;;;7.30;2.25;;;11.90;99.90;;;;;;4981089;28;20101;-77
2022/11/09 06:26:16;;;;;;;9.35;2.33;;;11.70;99.90;;;;;;4965727;28;20042;-76
2022/11/09 06:28:42;;;;;;;6.97;2.40;;;11.80;99.90;;;;;;4959982;28;20113;-77
2022/11/09 06:31:11;;;;;;;8.43;2.45;;;11.70;99.90;;;;;;4979609;28;20042;-77
2022/11/09 06:33:37;;;;;;;10.93;2.42;;;11.80;99.90;;;;;;4967211;28;20037;-75
2022/11/09 06:36:23;;;;;;;4.57;2.20;;;11.80;99.90;;;;;;4942775;29;20127;-76
2022/11/09 06:38:50;;;;;;;9.25;2.03;;;11.70;99.90;;;;;;4946291;29;20225;-76
2022/11/09 06:41:16;;;;;;;9.25;2.70;;;11.80;99.90;;;;;;4962071;28;20027;-77
2022/11/09 06:43:42;;;;;;;7.03;2.72;;;11.70;99.90;;;;;;4954046;28;20037;-77
2022/11/09 06:46:09;;;;;;;8.80;2.67;;;11.70;99.90;;;;;;4963406;28;20045;-78
2022/11/09 06:48:36;;;;;;;7.57;2.03;;;11.70;99.90;;;;;;4965073;28;20055;-77
2022/11/09 06:51:03;;;;;;;8.93;2.60;;;11.60;99.90;;;;;;4949259;28;20038;-77
2022/11/09 06:53:29;;;;;;;11.55;2.75;;;11.60;99.90;;;;;;4950693;29;20063;-78
2022/11/09 06:56:00;;;;;;;9.68;2.17;;;11.60;99.90;;;;;;4955882;29;20107;-79
2022/11/09 06:58:26;;;;;;;7.32;2.50;;;11.70;99.90;;;;;;4943948;29;20043;-78
2022/11/09 07:00:52;;;;;;;6.97;2.05;;;11.60;99.90;;;;;;4905729;29;20028;-77
2022/11/09 07:03:19;;;;;;;9.55;2.40;;;11.70;99.90;;;;;;4945268;29;20046;-78
2022/11/09 07:05:46;;;;;;;8.00;2.22;;;12.40;99.90;;;;;;4935592;29;20035;-78
2022/11/09 07:08:12;;;;;;;10.75;3.45;;;11.70;99.90;;;;;;4940345;29;20031;-77
2022/11/09 07:10:38;;;;;;;7.80;2.53;;;11.60;99.90;;;;;;4941567;29;20090;-78
2022/11/09 07:13:04;;;;;;;11.02;2.40;;;11.70;99.90;;;;;;4961606;29;20066;-77
2022/11/09 07:15:31;;;;;;;6.93;1.70;;;11.70;99.90;;;;;;4964133;28;20111;-78
2022/11/09 07:17:57;;;;;;;6.03;1.88;;;11.70;99.90;;;;;;4965402;29;20051;-77
2022/11/09 07:20:23;;;;;;;5.78;2.40;;;11.70;99.90;;;;;;4933648;29;20050;-77
2022/11/09 07:22:55;;;;;;;6.45;1.80;;;11.60;99.90;;;;;;4955419;28;20030;-78
2022/11/09 07:25:21;;;;;;;8.13;2.30;;;11.70;99.90;;;;;;4930497;28;20035;-78
2022/11/09 07:27:47;;;;;;;6.63;2.28;;;11.70;99.90;;;;;;4942436;29;20039;-77
2022/11/09 07:30:13;;;;;;;7.25;1.73;;;11.70;99.90;;;;;;4957569;28;20081;-78
2022/11/09 07:32:40;;;;;;;9.52;2.15;;;11.70;99.90;;;;;;4965101;28;20139;-77
2022/11/09 07:35:07;;;;;;;9.43;2.03;;;11.70;99.90;;;;;;4963862;28;20043;-78
2022/11/09 07:37:34;;;;;;;6.88;2.50;;;11.80;99.90;;;;;;4970444;28;20051;-77
2022/11/09 07:40:00;;;;;;;7.50;2.33;;;11.70;99.90;;;;;;4960756;28;20039;-78
2022/11/09 07:42:27;;;;;;;6.90;1.77;;;14.00;99.90;;;;;;4977874;28;20058;-81
2022/11/09 07:44:53;;;;;;;9.02;2.08;;;11.80;99.90;;;;;;4928009;29;20121;-78
2022/11/09 07:47:21;;;;;;;7.00;2.50;;;11.90;99.90;;;;;;4928931;29;20028;-80
2022/11/09 07:49:47;;;;;;;6.63;1.90;;;11.80;99.90;;;;;;4957986;28;20038;-80
2022/11/09 07:52:12;;;;;;;8.90;2.20;;;11.80;99.90;;;;;;4950310;29;20163;-79
2022/11/09 07:54:38;;;;;;;7.30;2.17;;;11.80;99.90;;;;;;4939644;29;20095;-80
2022/11/09 07:57:05;;;;;;;4.68;2.20;;;12.00;99.90;;;;;;4927211;29;20318;-80
2022/11/09 07:59:30;;;;;;;7.60;2.25;;;12.10;99.90;;;;;;4976742;28;20221;-80
2022/11/09 08:01:57;;;;;;;6.13;1.80;;;12.10;99.90;;;;;;4953745;29;20062;-79
2022/11/09 08:04:23;;;;;;;7.35;2.20;;;12.10;99.90;;;;;;4939100;29;20043;-79
2022/11/09 08:06:53;;;;;;;5.05;2.10;;;12.10;99.90;;;;;;4945099;29;20041;-80
2022/11/09 08:09:19;;;;;;;6.60;1.92;;;12.20;99.90;;;;;;4957790;29;20078;-79
2022/11/09 08:11:44;;;;;;;7.50;2.00;;;12.50;99.90;;;;;;4958645;29;20050;-79
2022/11/09 08:14:10;;;;;;;5.40;1.70;;;12.60;99.90;;;;;;4949137;29;20031;-80
2022/11/09 08:16:36;;;;;;;4.45;1.60;;;12.60;99.90;;;;;;4965369;29;20035;-78
2022/11/09 08:19:03;;;;;;;4.72;1.80;;;12.80;99.90;;;;;;4944904;29;20031;-81
2022/11/09 08:21:29;;;;;;;6.03;1.80;;;12.50;99.90;;;;;;4950753;29;20062;-82
2022/11/09 08:23:54;;;;;;;11.45;2.45;;;12.90;99.90;;;;;;4943980;29;20034;-79
2022/11/09 08:26:20;;;;;;;7.55;2.53;;;13.20;99.90;;;;;;4946621;29;20031;-79
2022/11/09 08:28:46;;;;;;;7.88;2.38;;;13.30;99.90;;;;;;4914262;29;20035;-79
2022/11/09 08:31:11;;;;;;;8.07;1.80;;;13.50;99.90;;;;;;4929643;29;20027;-79
2022/11/09 08:33:40;;;;;;;6.10;1.85;;;13.50;99.90;;;;;;4927539;29;20050;-80
2022/11/09 08:36:11;;;;;;;5.40;1.77;;;13.70;99.90;;;;;;4961180;29;20045;-79
2022/11/09 08:38:37;;;;;;;8.85;2.17;;;13.80;99.90;;;;;;4954918;29;20388;-78
2022/11/09 08:41:03;;;;;;;6.90;2.00;;;14.00;99.90;;;;;;4940767;29;20027;-79
2022/11/09 08:43:29;;;;;;;5.43;2.20;;;14.10;99.90;;;;;;4942049;29;20039;-79
2022/11/09 08:45:54;;;;;;;9.05;2.10;;;14.00;99.90;;;;;;4942481;29;20043;-79
2022/11/09 08:48:20;;;;;;;8.30;2.20;;;14.20;99.90;;;;;;4926391;29;20034;-79
2022/11/09 08:50:55;;;;;;;6.30;1.98;;;14.40;99.90;;;;;;4928503;29;20039;-79
2022/11/09 08:53:21;;;;;;;;;;;14.10;99.90;;;;;;4941145;29;20063;-79
2022/11/09 08:55:47;;;;;;;6.95;1.98;;;14.20;99.90;;;;;;4938171;29;19994;-79
2022/11/09 08:58:15;;;;;;;6.93;1.83;;;14.70;99.90;;;;;;4957945;28;20341;-79
2022/11/09 09:00:41;;;;;;;8.65;1.88;;;14.80;99.90;;;;;;4937570;29;20037;-79
2022/11/09 09:03:07;;;;;;;6.95;1.80;;;14.90;99.90;;;;;;4926826;28;20039;-79
2022/11/09 09:05:34;;;;;;;8.65;2.00;;;15.00;99.90;;;;;;4922559;29;20222;-79
2022/11/09 09:08:01;;;;;;;9.68;2.05;;;14.80;99.90;;;;;;4938237;28;20042;-78
2022/11/09 09:10:28;;;;;;;8.50;2.33;;;14.90;99.90;;;;;;4972491;28;20058;-78
2022/11/09 09:12:54;;;;;;;11.00;2.65;;;15.00;99.90;;;;;;4935191;28;20091;-78
2022/11/09 09:15:20;;;;;;;6.53;2.13;;;15.20;99.90;;;;;;4962509;28;20106;-77
2022/11/09 09:17:46;;;;;;;6.88;1.92;;;15.20;99.90;;;;;;4931513;29;20118;-78
2022/11/09 09:20:11;;;;;;;6.90;2.05;;;15.30;99.90;;;;;;4938372;28;20043;-78
2022/11/09 09:22:37;;;;;;;6.50;2.05;;;15.30;99.90;;;;;;4982192;28;20199;-78
2022/11/09 09:25:03;;;;;;;9.40;2.15;;;15.30;99.90;;;;;;4946133;29;20105;-79
2022/11/09 09:27:29;;;;;;;8.07;1.85;;;15.40;99.90;;;;;;4924127;29;20066;-80
2022/11/09 09:29:56;;;;;;;10.32;2.08;;;15.60;99.90;;;;;;4972014;28;20039;-79
2022/11/09 09:32:21;;;;;;;5.22;1.90;;;15.80;99.90;;;;;;4960954;29;20113;-78
2022/11/09 09:34:47;;;;;;;6.45;2.13;;;15.60;99.90;;;;;;4931558;29;20042;-79
2022/11/09 09:37:16;;;;;;;9.80;2.50;;;15.40;99.90;;;;;;4917336;29;20035;-81
2022/11/09 09:39:44;;;;;;;8.55;2.13;;;15.40;99.90;;;;;;4939531;29;20081;-79
2022/11/09 09:42:16;;;;;;;5.95;2.20;;;15.40;99.90;;;;;;4964269;28;20114;-77
2022/11/09 09:45:05;;;;;;;8.48;2.63;;;15.50;99.90;;;;;;4963064;28;20065;-77
2022/11/09 09:47:55;;;;;;;9.02;2.38;;;15.50;99.90;;;;;;4962606;28;20043;-76
2022/11/09 09:50:26;;;;;;;9.65;2.22;;;15.50;99.90;;;;;;4946449;28;20042;-79
2022/11/09 09:53:13;;;;;;;7.72;2.00;;;15.40;99.90;;;;;;4952841;29;20123;-79
2022/11/09 09:56:09;;;;;;;8.32;2.28;;;15.20;99.90;;;;;;4943685;29;20091;-80
2022/11/09 09:59:10;;;;;;;10.52;2.60;;;15.30;99.90;;;;;;4945494;29;20047;-78
2022/11/09 10:01:39;;;;;;;7.30;2.33;;;15.70;99.90;;;;;;4910674;28;20039;-79
2022/11/09 10:04:23;;;;;;;8.68;2.28;;;15.90;99.90;;;;;;4957418;28;20031;-78
2022/11/09 10:07:01;;;;;;;9.00;2.40;;;15.80;99.90;;;;;;4962599;28;20195;-77
2022/11/09 10:09:50;;;;;;;8.82;2.45;;;15.90;99.90;;;;;;4961206;29;20043;-79
2022/11/09 10:13:01;;;;;;;7.85;2.30;;;15.80;99.90;;;;;;4926672;28;20040;-79
2022/11/09 10:15:51;;;;;;;9.13;2.40;;;15.70;99.90;;;;;;4905870;29;20240;-79
2022/11/09 10:19:01;;;;;;;5.22;2.17;;;15.50;99.90;;;;;;4940718;29;20353;-79
2022/11/09 10:22:06;;;;;;;6.40;2.30;;;15.20;99.90;;;;;;4955322;28;20090;-78
2022/11/09 10:24:52;;;;;;;6.65;2.70;;;15.00;99.90;;;;;;4961901;29;20123;-79
2022/11/09 10:27:43;;;;;;;8.13;2.35;;;15.10;99.90;;;;;;4939576;29;20055;-78
2022/11/09 10:30:17;;;;;;;9.43;2.65;;;14.90;99.90;;;;;;4959255;28;20046;-79
2022/11/09 10:33:08;;;;;;;7.75;2.72;;;14.80;99.90;;;;;;4961572;28;20024;-76
2022/11/09 10:35:40;;;;;;;6.40;2.42;;;14.70;99.90;;;;;;4959639;28;20031;-78
2022/11/09 10:38:12;;;;;;;7.38;2.45;;;14.70;99.90;;;;;;4958303;28;20074;-79
2022/11/09 10:40:50;;;;;;;8.60;2.95;;;14.70;99.90;;;;;;4944984;29;20261;-79
2022/11/09 10:43:16;;;;;;;10.50;3.03;;;14.80;99.90;;;;;;4957755;28;20046;-78
2022/11/09 10:45:43;;;;;;;11.18;3.17;;;14.90;99.90;;;;;;4936515;29;20110;-79
2022/11/09 10:48:11;;;;;;;7.55;2.42;;;15.00;99.90;;;;;;4961323;28;20257;-80
2022/11/09 10:50:52;;;;;;;8.23;2.65;;;15.20;99.90;;;;;;4978296;28;20041;-81
2022/11/09 10:53:27;;;;;;;6.70;2.60;;;17.10;99.90;;;;;;4976293;28;20067;-80
2022/11/09 10:55:53;;;;;;;;;;;14.90;99.90;;;;;;4959855;29;20172;-81
2022/11/09 10:58:31;;;;;;;10.57;2.75;;;14.80;99.90;;;;;;4939222;29;20137;-80
2022/11/09 11:01:00;;;;;;;6.00;2.75;;;14.60;99.90;;;;;;4941206;29;20035;-80
2022/11/09 11:03:26;;;;;;;7.30;2.60;;;14.40;99.90;;;;;;4964721;28;20043;-81
2022/11/09 11:06:03;;;;;;;9.07;2.45;;;14.50;99.90;;;;;;4954451;28;20047;-81
2022/11/09 11:08:35;;;;;;;7.78;2.88;;;14.40;99.90;;;;;;4953077;29;20027;-81
2022/11/09 11:11:23;;;;;;;10.50;3.05;;;14.10;99.90;;;;;;4941733;29;20043;-81
2022/11/09 11:14:09;;;;;;;6.35;2.67;;;14.10;99.90;;;;;;4946848;29;20081;-81
2022/11/09 11:16:35;;;;;;;;;;;14.00;99.90;;;;;;4963712;28;20043;-76
2022/11/09 11:19:01;;;;;;;8.02;3.20;;;14.00;99.90;;;;;;4931360;28;19945;-79
2022/11/09 11:21:28;;;;;;;8.27;2.90;;;13.90;99.90;;;;;;4958723;28;20043;-80
2022/11/09 11:24:16;;;;;;;8.23;2.45;;;14.00;99.90;;;;;;4937270;29;20107;-80
2022/11/09 11:26:46;;;;;;;9.07;2.72;;;13.90;99.90;;;;;;4944684;29;20226;-78
2022/11/09 11:29:21;;;;;;;7.90;2.85;;;13.90;99.90;;;;;;4940926;29;20202;-81
2022/11/09 11:31:47;;;;;;;6.50;2.70;;;13.90;99.90;;;;;;4961120;28;20043;-79
2022/11/09 11:34:13;;;;;;;5.88;2.65;;;13.90;99.90;;;;;;4928854;28;20262;-77
2022/11/09 11:36:51;;;;;;;12.98;2.55;;;13.90;99.90;;;;;;4935277;29;20054;-76
2022/11/09 11:39:23;;;;;;;7.95;2.60;;;13.90;99.90;;;;;;4944168;29;20039;-80
2022/11/09 11:42:33;;;;;;;9.65;2.58;;;13.80;99.90;;;;;;4954363;28;20043;-77
2022/11/09 11:45:31;;;;;;;7.10;2.63;;;13.80;99.90;;;;;;4913342;29;20233;-77
2022/11/09 11:48:18;;;;;;;5.35;2.75;;;13.90;99.90;;;;;;4954474;28;20131;-79
2022/11/09 11:51:21;;;;;;;6.40;2.42;;;14.00;99.90;;;;;;4960033;28;20058;-79
2022/11/09 11:53:49;;;;;;;8.82;2.70;;;14.10;99.90;;;;;;4956868;29;20064;-77
2022/11/09 11:56:42;;;;;;;7.80;2.83;;;14.10;99.90;;;;;;4954906;28;20035;-79
2022/11/09 11:59:26;;;;;;;6.72;2.95;;;14.10;99.90;;;;;;4952126;29;20039;-77
2022/11/09 12:02:02;;;;;;;8.40;2.38;;;14.00;99.90;;;;;;4960889;28;20031;-80
2022/11/09 12:04:37;;;;;;;8.00;2.72;;;12.70;99.90;;;;;;4948619;29;20027;-77
2022/11/09 12:07:02;;;;;;;8.13;2.47;;;13.90;99.90;;;;;;4961604;28;20043;-78
2022/11/09 12:09:39;;;;;;;9.18;2.95;;;14.10;99.90;;;;;;4976500;28;20049;-76
2022/11/09 12:12:26;;;;;;;6.40;2.58;;;14.00;99.90;;;;;;4952106;28;20071;-78
2022/11/09 12:15:03;;;;;;;8.93;2.75;;;14.00;99.90;;;;;;4953870;29;20123;-79
2022/11/09 12:17:52;;;;;;;11.25;3.30;;;13.90;99.90;;;;;;4951812;28;20137;-79
2022/11/09 12:20:45;;;;;;;8.40;2.75;;;13.90;99.90;;;;;;4959186;28;20218;-78
2022/11/09 12:23:19;;;;;;;8.57;2.85;;;13.80;99.90;;;;;;4976006;28;20063;-78
2022/11/09 12:25:50;;;;;;;9.73;2.90;;;13.80;99.90;;;;;;4947849;29;20214;-77
2022/11/09 12:28:16;;;;;;;8.02;3.08;;;13.80;99.90;;;;;;4946716;29;20043;-78
2022/11/09 12:30:53;;;;;;;10.32;3.35;;;13.70;99.90;;;;;;4940319;29;20047;-77
2022/11/09 12:33:31;;;;;;;10.68;3.60;;;13.70;99.90;;;;;;4963492;28;20114;-78
2022/11/09 12:36:25;;;;;;;13.45;3.55;;;13.80;99.90;;;;;;4958246;29;20093;-79
2022/11/09 12:39:30;;;;;;;10.45;3.22;;;13.80;99.90;;;;;;4979484;28;20050;-76
2022/11/09 12:42:03;;;;;;;7.65;2.70;;;13.80;99.90;;;;;;4940913;28;20115;-77
2022/11/09 12:44:38;;;;;;;6.70;2.83;;;13.90;99.90;;;;;;4977754;28;20031;-76
2022/11/09 12:47:19;;;;;;;9.95;3.50;;;13.90;99.90;;;;;;4954645;29;20383;-76
2022/11/09 12:49:46;;;;;;;8.98;2.88;;;14.00;99.90;;;;;;4963311;29;20050;-77
2022/11/09 12:52:25;;;;;;;9.82;2.75;;;14.00;99.90;;;;;;4979072;28;20047;-78
2022/11/09 12:54:53;;;;;;;7.95;2.88;;;14.00;99.90;;;;;;4962975;29;20059;-80
2022/11/09 12:57:25;;;;;;;14.57;2.95;;;14.10;99.90;;;;;;4947102;29;20258;-80
2022/11/09 12:59:53;;;;;;;8.32;2.75;;;14.10;99.90;;;;;;4950002;29;20031;-80
2022/11/09 13:02:57;;;;;;;10.95;2.80;;;14.00;99.90;;;;;;4963411;29;20078;-79
2022/11/09 13:05:36;;;;;;;7.30;2.55;;;13.90;99.90;;;;;;4887326;29;20032;-80
2022/11/09 13:08:04;;;;;;;12.38;2.78;;;13.80;99.90;;;;;;4920181;29;20083;-75
2022/11/09 13:10:37;;;;;;;7.18;2.42;;;13.80;99.90;;;;;;4926639;29;20274;-76